sensor_id;sensor_type;location;lat;lon;timestamp;pressure;altitude;pressure_sealevel;temperature;humidity
24390;BME280;12510;56.468;-3.004;2023-12-20T00:02:23;53524.78;;;-148.32;nan
24390;BME280;12510;56.468;-3.004;2023-12-20T00:04:49;53558.63;;;-148.32;nan
24390;BME280;12510;56.468;-3.004;2023-12-20T00:07:15;53532.75;;;-148.32;nan
24390;BME280;12510;56.468;-3.004;2023-12-20T00:09:42;53522.78;;;-148.32;nan
24390;BME280;12510;56.468;-3.004;2023-12-20T00:12:08;53484.94;;;-148.32;nan
24390;BME280;12510;56.468;-3.004;2023-12-20T00:14:34;53463.03;;;-148.32;nan
24390;BME280;12510;56.468;-3.004;2023-12-20T00:17:00;53500.88;;;-148.32;nan
24390;BME280;12510;56.468;-3.004;2023-12-20T00:19:26;53496.91;;;-148.32;nan
24390;BME280;12510;56.468;-3.004;2023-12-20T00:21:53;53508.84;;;-148.32;nan
24390;BME280;12510;56.468;-3.004;2023-12-20T00:24:19;53548.69;;;-148.32;nan
24390;BME280;12510;56.468;-3.004;2023-12-20T00:26:46;53496.91;;;-148.32;nan
24390;BME280;12510;56.468;-3.004;2023-12-20T00:29:12;53461.06;;;-148.32;nan
24390;BME280;12510;56.468;-3.004;2023-12-20T00:31:39;53439.16;;;-148.32;nan
24390;BME280;12510;56.468;-3.004;2023-12-20T00:34:05;53441.13;;;-148.32;nan
24390;BME280;12510;56.468;-3.004;2023-12-20T00:36:31;53451.09;;;-148.32;nan
24390;BME280;12510;56.468;-3.004;2023-12-20T00:38:57;53445.13;;;-148.32;nan
24390;BME280;12510;56.468;-3.004;2023-12-20T00:41:23;53387.38;;;-148.32;nan
24390;BME280;12510;56.468;-3.004;2023-12-20T00:43:49;53385.38;;;-148.32;nan
24390;BME280;12510;56.468;-3.004;2023-12-20T00:46:15;53373.44;;;-148.32;nan
24390;BME280;12510;56.468;-3.004;2023-12-20T00:48:41;53369.44;;;-148.32;nan
24390;BME280;12510;56.468;-3.004;2023-12-20T00:51:08;53389.34;;;-148.32;nan
24390;BME280;12510;56.468;-3.004;2023-12-20T00:53:34;53351.53;;;-148.32;nan
24390;BME280;12510;56.468;-3.004;2023-12-20T00:56:00;53341.56;;;-148.32;nan
24390;BME280;12510;56.468;-3.004;2023-12-20T00:58:26;53301.75;;;-148.32;nan
24390;BME280;12510;56.468;-3.004;2023-12-20T01:00:53;53339.56;;;-148.32;nan
24390;BME280;12510;56.468;-3.004;2023-12-20T01:03:19;53285.81;;;-148.32;nan
24390;BME280;12510;56.468;-3.004;2023-12-20T01:05:46;53277.84;;;-148.32;nan
24390;BME280;12510;56.468;-3.004;2023-12-20T01:08:12;53319.66;;;-148.32;nan
24390;BME280;12510;56.468;-3.004;2023-12-20T01:10:38;53285.81;;;-148.32;nan
24390;BME280;12510;56.468;-3.004;2023-12-20T01:13:05;53323.66;;;-148.32;nan
24390;BME280;12510;56.468;-3.004;2023-12-20T01:15:31;53349.53;;;-148.32;nan
24390;BME280;12510;56.468;-3.004;2023-12-20T01:17:57;53313.69;;;-148.32;nan
24390;BME280;12510;56.468;-3.004;2023-12-20T01:20:25;53329.63;;;-148.32;nan
24390;BME280;12510;56.468;-3.004;2023-12-20T01:22:51;53309.69;;;-148.32;nan
24390;BME280;12510;56.468;-3.004;2023-12-20T01:25:17;53333.59;;;-148.32;nan
24390;BME280;12510;56.468;-3.004;2023-12-20T01:27:43;53395.34;;;-148.32;nan
24390;BME280;12510;56.468;-3.004;2023-12-20T01:30:10;53365.47;;;-148.32;nan
24390;BME280;12510;56.468;-3.004;2023-12-20T01:32:36;53351.53;;;-148.32;nan
24390;BME280;12510;56.468;-3.004;2023-12-20T01:35:02;53381.41;;;-148.32;nan
24390;BME280;12510;56.468;-3.004;2023-12-20T01:37:28;53377.41;;;-148.32;nan
24390;BME280;12510;56.468;-3.004;2023-12-20T01:39:55;53375.41;;;-148.32;nan
24390;BME280;12510;56.468;-3.004;2023-12-20T01:42:21;53319.66;;;-148.32;nan
24390;BME280;12510;56.468;-3.004;2023-12-20T01:44:48;53345.53;;;-148.32;nan
24390;BME280;12510;56.468;-3.004;2023-12-20T01:47:14;53339.56;;;-148.32;nan
24390;BME280;12510;56.468;-3.004;2023-12-20T01:49:40;53315.69;;;-148.32;nan
24390;BME280;12510;56.468;-3.004;2023-12-20T01:52:06;53325.63;;;-148.32;nan
24390;BME280;12510;56.468;-3.004;2023-12-20T01:54:34;53329.63;;;-148.32;nan
24390;BME280;12510;56.468;-3.004;2023-12-20T01:57:00;53341.56;;;-148.32;nan
24390;BME280;12510;56.468;-3.004;2023-12-20T01:59:27;53315.69;;;-148.32;nan
24390;BME280;12510;56.468;-3.004;2023-12-20T02:01:54;53365.47;;;-148.32;nan
24390;BME280;12510;56.468;-3.004;2023-12-20T02:04:21;53413.25;;;-148.32;nan
24390;BME280;12510;56.468;-3.004;2023-12-20T02:06:47;53365.47;;;-148.32;nan
24390;BME280;12510;56.468;-3.004;2023-12-20T02:09:14;53379.41;;;-148.32;nan
24390;BME280;12510;56.468;-3.004;2023-12-20T02:11:40;53375.41;;;-148.32;nan
24390;BME280;12510;56.468;-3.004;2023-12-20T02:14:07;53359.50;;;-148.32;nan
24390;BME280;12510;56.468;-3.004;2023-12-20T02:16:33;53341.56;;;-148.32;nan
24390;BME280;12510;56.468;-3.004;2023-12-20T02:18:59;53335.59;;;-148.32;nan
24390;BME280;12510;56.468;-3.004;2023-12-20T02:21:31;53341.56;;;-148.32;nan
24390;BME280;12510;56.468;-3.004;2023-12-20T02:23:57;53325.63;;;-148.32;nan
24390;BME280;12510;56.468;-3.004;2023-12-20T02:26:23;53341.56;;;-148.32;nan
24390;BME280;12510;56.468;-3.004;2023-12-20T02:28:49;53307.72;;;-148.32;nan
24390;BME280;12510;56.468;-3.004;2023-12-20T02:31:16;53321.66;;;-148.32;nan
24390;BME280;12510;56.468;-3.004;2023-12-20T02:33:42;53293.78;;;-148.32;nan
24390;BME280;12510;56.468;-3.004;2023-12-20T02:36:08;53311.69;;;-148.32;nan
24390;BME280;12510;56.468;-3.004;2023-12-20T02:38:34;53319.66;;;-148.32;nan
24390;BME280;12510;56.468;-3.004;2023-12-20T02:41:00;53293.78;;;-148.32;nan
24390;BME280;12510;56.468;-3.004;2023-12-20T02:43:26;53289.78;;;-148.32;nan
24390;BME280;12510;56.468;-3.004;2023-12-20T02:45:52;53303.72;;;-148.32;nan
24390;BME280;12510;56.468;-3.004;2023-12-20T02:48:18;53261.91;;;-148.32;nan
24390;BME280;12510;56.468;-3.004;2023-12-20T02:50:45;53277.84;;;-148.32;nan
24390;BME280;12510;56.468;-3.004;2023-12-20T02:53:12;53281.81;;;-148.32;nan
24390;BME280;12510;56.468;-3.004;2023-12-20T02:55:38;53242.00;;;-148.32;nan
24390;BME280;12510;56.468;-3.004;2023-12-20T02:58:04;53245.97;;;-148.32;nan
24390;BME280;12510;56.468;-3.004;2023-12-20T03:00:30;53234.03;;;-148.32;nan
24390;BME280;12510;56.468;-3.004;2023-12-20T03:02:56;53214.13;;;-148.32;nan
24390;BME280;12510;56.468;-3.004;2023-12-20T03:05:22;53210.13;;;-148.32;nan
24390;BME280;12510;56.468;-3.004;2023-12-20T03:07:49;53222.09;;;-148.32;nan
24390;BME280;12510;56.468;-3.004;2023-12-20T03:10:15;53247.97;;;-148.32;nan
24390;BME280;12510;56.468;-3.004;2023-12-20T03:12:41;53222.09;;;-148.32;nan
24390;BME280;12510;56.468;-3.004;2023-12-20T03:15:07;53210.13;;;-148.32;nan
24390;BME280;12510;56.468;-3.004;2023-12-20T03:17:33;53242.00;;;-148.32;nan
24390;BME280;12510;56.468;-3.004;2023-12-20T03:20:00;53202.16;;;-148.32;nan
24390;BME280;12510;56.468;-3.004;2023-12-20T03:22:26;53210.13;;;-148.32;nan
24390;BME280;12510;56.468;-3.004;2023-12-20T03:24:52;53224.06;;;-148.32;nan
24390;BME280;12510;56.468;-3.004;2023-12-20T03:27:18;53218.09;;;-148.32;nan
24390;BME280;12510;56.468;-3.004;2023-12-20T03:29:44;53214.13;;;-148.32;nan
24390;BME280;12510;56.468;-3.004;2023-12-20T03:32:10;53220.09;;;-148.32;nan
24390;BME280;12510;56.468;-3.004;2023-12-20T03:34:36;53226.06;;;-148.32;nan
24390;BME280;12510;56.468;-3.004;2023-12-20T03:37:03;53251.94;;;-148.32;nan
24390;BME280;12510;56.468;-3.004;2023-12-20T03:39:29;53242.00;;;-148.32;nan
24390;BME280;12510;56.468;-3.004;2023-12-20T03:41:55;53255.94;;;-148.32;nan
24390;BME280;12510;56.468;-3.004;2023-12-20T03:44:21;53232.03;;;-148.32;nan
24390;BME280;12510;56.468;-3.004;2023-12-20T03:46:48;53249.97;;;-148.32;nan
24390;BME280;12510;56.468;-3.004;2023-12-20T03:49:15;53253.94;;;-148.32;nan
24390;BME280;12510;56.468;-3.004;2023-12-20T03:51:41;53238.00;;;-148.32;nan
24390;BME280;12510;56.468;-3.004;2023-12-20T03:54:08;53232.03;;;-148.32;nan
24390;BME280;12510;56.468;-3.004;2023-12-20T03:56:34;53242.00;;;-148.32;nan
24390;BME280;12510;56.468;-3.004;2023-12-20T03:59:00;53251.94;;;-148.32;nan
24390;BME280;12510;56.468;-3.004;2023-12-20T04:01:26;53234.03;;;-148.32;nan
24390;BME280;12510;56.468;-3.004;2023-12-20T04:03:53;53158.38;;;-148.32;nan
24390;BME280;12510;56.468;-3.004;2023-12-20T04:06:19;53162.34;;;-148.32;nan
24390;BME280;12510;56.468;-3.004;2023-12-20T04:08:45;53170.31;;;-148.32;nan
24390;BME280;12510;56.468;-3.004;2023-12-20T04:11:11;53162.34;;;-148.32;nan
24390;BME280;12510;56.468;-3.004;2023-12-20T04:13:37;53172.31;;;-148.32;nan
24390;BME280;12510;56.468;-3.004;2023-12-20T04:16:03;53172.31;;;-148.32;nan
24390;BME280;12510;56.468;-3.004;2023-12-20T04:18:29;53182.25;;;-148.32;nan
24390;BME280;12510;56.468;-3.004;2023-12-20T04:20:57;53182.25;;;-148.32;nan
24390;BME280;12510;56.468;-3.004;2023-12-20T04:23:23;53176.28;;;-148.32;nan
24390;BME280;12510;56.468;-3.004;2023-12-20T04:25:50;53226.06;;;-148.32;nan
24390;BME280;12510;56.468;-3.004;2023-12-20T04:28:16;53206.16;;;-148.32;nan
24390;BME280;12510;56.468;-3.004;2023-12-20T04:30:42;53234.03;;;-148.32;nan
24390;BME280;12510;56.468;-3.004;2023-12-20T04:33:08;53226.06;;;-148.32;nan
24390;BME280;12510;56.468;-3.004;2023-12-20T04:35:34;53247.97;;;-148.32;nan
24390;BME280;12510;56.468;-3.004;2023-12-20T04:38:00;53222.09;;;-148.32;nan
24390;BME280;12510;56.468;-3.004;2023-12-20T04:40:26;53226.06;;;-148.32;nan
24390;BME280;12510;56.468;-3.004;2023-12-20T04:42:53;53242.00;;;-148.32;nan
24390;BME280;12510;56.468;-3.004;2023-12-20T04:45:19;53218.09;;;-148.32;nan
24390;BME280;12510;56.468;-3.004;2023-12-20T04:47:45;53206.16;;;-148.32;nan
24390;BME280;12510;56.468;-3.004;2023-12-20T04:50:12;53234.03;;;-148.32;nan
24390;BME280;12510;56.468;-3.004;2023-12-20T04:52:39;53240.00;;;-148.32;nan
24390;BME280;12510;56.468;-3.004;2023-12-20T04:55:05;53234.03;;;-148.32;nan
24390;BME280;12510;56.468;-3.004;2023-12-20T04:57:31;53226.06;;;-148.32;nan
24390;BME280;12510;56.468;-3.004;2023-12-20T04:59:57;53214.13;;;-148.32;nan
24390;BME280;12510;56.468;-3.004;2023-12-20T05:02:23;53202.16;;;-148.32;nan
24390;BME280;12510;56.468;-3.004;2023-12-20T05:04:49;53204.16;;;-148.32;nan
24390;BME280;12510;56.468;-3.004;2023-12-20T05:07:16;53196.19;;;-148.32;nan
24390;BME280;12510;56.468;-3.004;2023-12-20T05:09:42;53200.19;;;-148.32;nan
24390;BME280;12510;56.468;-3.004;2023-12-20T05:12:08;53194.22;;;-148.32;nan
24390;BME280;12510;56.468;-3.004;2023-12-20T05:14:34;53210.13;;;-148.32;nan
24390;BME280;12510;56.468;-3.004;2023-12-20T05:17:00;53202.16;;;-148.32;nan
24390;BME280;12510;56.468;-3.004;2023-12-20T05:19:27;53182.25;;;-148.32;nan
24390;BME280;12510;56.468;-3.004;2023-12-20T05:21:53;53184.25;;;-148.32;nan
24390;BME280;12510;56.468;-3.004;2023-12-20T05:24:19;53208.16;;;-148.32;nan
24390;BME280;12510;56.468;-3.004;2023-12-20T05:26:45;53198.19;;;-148.32;nan
24390;BME280;12510;56.468;-3.004;2023-12-20T05:29:12;53200.19;;;-148.32;nan
24390;BME280;12510;56.468;-3.004;2023-12-20T05:31:38;53188.22;;;-148.32;nan
24390;BME280;12510;56.468;-3.004;2023-12-20T05:34:04;53200.19;;;-148.32;nan
24390;BME280;12510;56.468;-3.004;2023-12-20T05:36:30;53188.22;;;-148.32;nan
24390;BME280;12510;56.468;-3.004;2023-12-20T05:38:56;53188.22;;;-148.32;nan
24390;BME280;12510;56.468;-3.004;2023-12-20T05:41:22;53174.28;;;-148.32;nan
24390;BME280;12510;56.468;-3.004;2023-12-20T05:43:48;53190.22;;;-148.32;nan
24390;BME280;12510;56.468;-3.004;2023-12-20T05:46:14;53154.38;;;-148.32;nan
24390;BME280;12510;56.468;-3.004;2023-12-20T05:48:41;53168.31;;;-148.32;nan
24390;BME280;12510;56.468;-3.004;2023-12-20T05:51:07;53162.34;;;-148.32;nan
24390;BME280;12510;56.468;-3.004;2023-12-20T05:53:33;53162.34;;;-148.32;nan
24390;BME280;12510;56.468;-3.004;2023-12-20T05:56:00;53178.28;;;-148.32;nan
24390;BME280;12510;56.468;-3.004;2023-12-20T05:58:26;53158.38;;;-148.32;nan
24390;BME280;12510;56.468;-3.004;2023-12-20T06:00:52;53162.34;;;-148.32;nan
24390;BME280;12510;56.468;-3.004;2023-12-20T06:03:18;53148.41;;;-148.32;nan
24390;BME280;12510;56.468;-3.004;2023-12-20T06:05:44;53144.41;;;-148.32;nan
24390;BME280;12510;56.468;-3.004;2023-12-20T06:08:10;53142.44;;;-148.32;nan
24390;BME280;12510;56.468;-3.004;2023-12-20T06:10:36;53146.41;;;-148.32;nan
24390;BME280;12510;56.468;-3.004;2023-12-20T06:13:02;53150.41;;;-148.32;nan
24390;BME280;12510;56.468;-3.004;2023-12-20T06:15:30;53154.38;;;-148.32;nan
24390;BME280;12510;56.468;-3.004;2023-12-20T06:17:56;53142.44;;;-148.32;nan
24390;BME280;12510;56.468;-3.004;2023-12-20T06:20:22;53158.38;;;-148.32;nan
24390;BME280;12510;56.468;-3.004;2023-12-20T06:22:48;53136.47;;;-148.32;nan
24390;BME280;12510;56.468;-3.004;2023-12-20T06:25:14;53146.41;;;-148.32;nan
24390;BME280;12510;56.468;-3.004;2023-12-20T06:27:40;53166.31;;;-148.32;nan
24390;BME280;12510;56.468;-3.004;2023-12-20T06:30:07;53154.38;;;-148.32;nan
24390;BME280;12510;56.468;-3.004;2023-12-20T06:32:35;53162.34;;;-148.32;nan
24390;BME280;12510;56.468;-3.004;2023-12-20T06:35:01;53154.38;;;-148.32;nan
24390;BME280;12510;56.468;-3.004;2023-12-20T06:37:27;53146.41;;;-148.32;nan
24390;BME280;12510;56.468;-3.004;2023-12-20T06:39:53;53166.31;;;-148.32;nan
24390;BME280;12510;56.468;-3.004;2023-12-20T06:42:19;53156.38;;;-148.32;nan
24390;BME280;12510;56.468;-3.004;2023-12-20T06:44:46;53194.22;;;-148.32;nan
24390;BME280;12510;56.468;-3.004;2023-12-20T06:47:12;53162.34;;;-148.32;nan
24390;BME280;12510;56.468;-3.004;2023-12-20T06:49:40;53150.41;;;-148.32;nan
24390;BME280;12510;56.468;-3.004;2023-12-20T06:52:06;53182.25;;;-148.32;nan
24390;BME280;12510;56.468;-3.004;2023-12-20T06:54:32;53154.38;;;-148.32;nan
24390;BME280;12510;56.468;-3.004;2023-12-20T06:57:00;53178.28;;;-148.32;nan
24390;BME280;12510;56.468;-3.004;2023-12-20T06:59:26;53164.34;;;-148.32;nan
24390;BME280;12510;56.468;-3.004;2023-12-20T07:01:52;53180.25;;;-148.32;nan
24390;BME280;12510;56.468;-3.004;2023-12-20T07:04:19;53166.31;;;-148.32;nan
24390;BME280;12510;56.468;-3.004;2023-12-20T07:06:48;53156.38;;;-148.32;nan
24390;BME280;12510;56.468;-3.004;2023-12-20T07:09:14;53174.28;;;-148.32;nan
24390;BME280;12510;56.468;-3.004;2023-12-20T07:11:41;53176.28;;;-148.32;nan
24390;BME280;12510;56.468;-3.004;2023-12-20T07:14:07;53162.34;;;-148.32;nan
24390;BME280;12510;56.468;-3.004;2023-12-20T07:16:33;53178.28;;;-148.32;nan
24390;BME280;12510;56.468;-3.004;2023-12-20T07:19:00;53166.31;;;-148.32;nan
24390;BME280;12510;56.468;-3.004;2023-12-20T07:21:26;53182.25;;;-148.32;nan
24390;BME280;12510;56.468;-3.004;2023-12-20T07:23:53;53176.28;;;-148.32;nan
24390;BME280;12510;56.468;-3.004;2023-12-20T07:26:19;53184.25;;;-148.32;nan
24390;BME280;12510;56.468;-3.004;2023-12-20T07:28:45;53190.22;;;-148.32;nan
24390;BME280;12510;56.468;-3.004;2023-12-20T07:31:11;53178.28;;;-148.32;nan
24390;BME280;12510;56.468;-3.004;2023-12-20T07:33:37;53186.25;;;-148.32;nan
24390;BME280;12510;56.468;-3.004;2023-12-20T07:36:04;53198.19;;;-148.32;nan
24390;BME280;12510;56.468;-3.004;2023-12-20T07:38:30;53166.31;;;-148.32;nan
24390;BME280;12510;56.468;-3.004;2023-12-20T07:40:56;53150.41;;;-148.32;nan
24390;BME280;12510;56.468;-3.004;2023-12-20T07:43:22;53194.22;;;-148.32;nan
24390;BME280;12510;56.468;-3.004;2023-12-20T07:45:48;53202.16;;;-148.32;nan
24390;BME280;12510;56.468;-3.004;2023-12-20T07:48:14;53178.28;;;-148.32;nan
24390;BME280;12510;56.468;-3.004;2023-12-20T07:50:41;53182.25;;;-148.32;nan
24390;BME280;12510;56.468;-3.004;2023-12-20T07:53:07;53210.13;;;-148.32;nan
24390;BME280;12510;56.468;-3.004;2023-12-20T07:55:33;53200.19;;;-148.32;nan
24390;BME280;12510;56.468;-3.004;2023-12-20T07:58:00;53216.09;;;-148.32;nan
24390;BME280;12510;56.468;-3.004;2023-12-20T08:00:26;53174.28;;;-148.32;nan
24390;BME280;12510;56.468;-3.004;2023-12-20T08:02:53;53176.28;;;-148.32;nan
24390;BME280;12510;56.468;-3.004;2023-12-20T08:05:19;53188.22;;;-148.32;nan
24390;BME280;12510;56.468;-3.004;2023-12-20T08:07:45;53196.19;;;-148.32;nan
24390;BME280;12510;56.468;-3.004;2023-12-20T08:10:11;53182.25;;;-148.32;nan
24390;BME280;12510;56.468;-3.004;2023-12-20T08:12:37;53204.16;;;-148.32;nan
24390;BME280;12510;56.468;-3.004;2023-12-20T08:15:05;53192.22;;;-148.32;nan
24390;BME280;12510;56.468;-3.004;2023-12-20T08:17:32;53208.16;;;-148.32;nan
24390;BME280;12510;56.468;-3.004;2023-12-20T08:19:58;53192.22;;;-148.32;nan
24390;BME280;12510;56.468;-3.004;2023-12-20T08:22:25;53210.13;;;-148.32;nan
24390;BME280;12510;56.468;-3.004;2023-12-20T08:24:51;53208.16;;;-148.32;nan
24390;BME280;12510;56.468;-3.004;2023-12-20T08:27:17;53214.13;;;-148.32;nan
24390;BME280;12510;56.468;-3.004;2023-12-20T08:29:44;53206.16;;;-148.32;nan
24390;BME280;12510;56.468;-3.004;2023-12-20T08:32:11;53206.16;;;-148.32;nan
24390;BME280;12510;56.468;-3.004;2023-12-20T08:34:37;53204.16;;;-148.32;nan
24390;BME280;12510;56.468;-3.004;2023-12-20T08:37:04;53180.25;;;-148.32;nan
24390;BME280;12510;56.468;-3.004;2023-12-20T08:39:30;53182.25;;;-148.32;nan
24390;BME280;12510;56.468;-3.004;2023-12-20T08:41:56;53212.13;;;-148.32;nan
24390;BME280;12510;56.468;-3.004;2023-12-20T08:44:22;53194.22;;;-148.32;nan
24390;BME280;12510;56.468;-3.004;2023-12-20T08:46:48;53176.28;;;-148.32;nan
24390;BME280;12510;56.468;-3.004;2023-12-20T08:49:14;53222.09;;;-148.32;nan
24390;BME280;12510;56.468;-3.004;2023-12-20T08:51:40;53206.16;;;-148.32;nan
24390;BME280;12510;56.468;-3.004;2023-12-20T08:54:07;53198.19;;;-148.32;nan
24390;BME280;12510;56.468;-3.004;2023-12-20T08:56:34;53196.19;;;-148.32;nan
24390;BME280;12510;56.468;-3.004;2023-12-20T08:59:00;53200.19;;;-148.32;nan
24390;BME280;12510;56.468;-3.004;2023-12-20T09:01:26;53166.31;;;-148.32;nan
24390;BME280;12510;56.468;-3.004;2023-12-20T09:03:52;53212.13;;;-148.32;nan
24390;BME280;12510;56.468;-3.004;2023-12-20T09:06:18;53234.03;;;-148.32;nan
24390;BME280;12510;56.468;-3.004;2023-12-20T09:08:44;53230.06;;;-148.32;nan
24390;BME280;12510;56.468;-3.004;2023-12-20T09:11:11;53234.03;;;-148.32;nan
24390;BME280;12510;56.468;-3.004;2023-12-20T09:13:37;53249.97;;;-148.32;nan
24390;BME280;12510;56.468;-3.004;2023-12-20T09:16:03;53261.91;;;-148.32;nan
24390;BME280;12510;56.468;-3.004;2023-12-20T09:18:29;53259.91;;;-148.32;nan
24390;BME280;12510;56.468;-3.004;2023-12-20T09:20:55;53269.88;;;-148.32;nan
24390;BME280;12510;56.468;-3.004;2023-12-20T09:23:21;53279.84;;;-148.32;nan
24390;BME280;12510;56.468;-3.004;2023-12-20T09:25:48;53249.97;;;-148.32;nan
24390;BME280;12510;56.468;-3.004;2023-12-20T09:28:14;53257.94;;;-148.32;nan
24390;BME280;12510;56.468;-3.004;2023-12-20T09:30:40;53253.94;;;-148.32;nan
24390;BME280;12510;56.468;-3.004;2023-12-20T09:33:06;53289.78;;;-148.32;nan
24390;BME280;12510;56.468;-3.004;2023-12-20T09:35:33;53253.94;;;-148.32;nan
24390;BME280;12510;56.468;-3.004;2023-12-20T09:37:59;53307.72;;;-148.32;nan
24390;BME280;12510;56.468;-3.004;2023-12-20T09:40:25;53345.53;;;-148.32;nan
24390;BME280;12510;56.468;-3.004;2023-12-20T09:42:58;53311.69;;;-148.32;nan
24390;BME280;12510;56.468;-3.004;2023-12-20T09:45:24;53317.66;;;-148.32;nan
24390;BME280;12510;56.468;-3.004;2023-12-20T09:47:54;53341.56;;;-148.32;nan
24390;BME280;12510;56.468;-3.004;2023-12-20T09:50:23;53365.47;;;-148.32;nan
24390;BME280;12510;56.468;-3.004;2023-12-20T09:52:50;53391.34;;;-148.32;nan
24390;BME280;12510;56.468;-3.004;2023-12-20T09:55:20;53391.34;;;-148.32;nan
24390;BME280;12510;56.468;-3.004;2023-12-20T09:57:47;53397.31;;;-148.32;nan
24390;BME280;12510;56.468;-3.004;2023-12-20T10:00:14;53397.31;;;-148.32;nan
24390;BME280;12510;56.468;-3.004;2023-12-20T10:03:02;53405.28;;;-148.32;nan
24390;BME280;12510;56.468;-3.004;2023-12-20T10:05:28;53347.53;;;-148.32;nan
24390;BME280;12510;56.468;-3.004;2023-12-20T10:07:54;53373.44;;;-148.32;nan
24390;BME280;12510;56.468;-3.004;2023-12-20T10:10:20;53397.31;;;-148.32;nan
24390;BME280;12510;56.468;-3.004;2023-12-20T10:15:29;53429.19;;;-148.32;nan
24390;BME280;12510;56.468;-3.004;2023-12-20T10:17:55;53375.41;;;-148.32;nan
24390;BME280;12510;56.468;-3.004;2023-12-20T10:20:21;53421.22;;;-148.32;nan
24390;BME280;12510;56.468;-3.004;2023-12-20T10:22:48;53403.28;;;-148.32;nan
24390;BME280;12510;56.468;-3.004;2023-12-20T10:25:14;53397.31;;;-148.32;nan
24390;BME280;12510;56.468;-3.004;2023-12-20T10:27:41;53389.34;;;-148.32;nan
24390;BME280;12510;56.468;-3.004;2023-12-20T10:30:07;53475.00;;;-148.32;nan
24390;BME280;12510;56.468;-3.004;2023-12-20T10:32:33;53429.19;;;-148.32;nan
24390;BME280;12510;56.468;-3.004;2023-12-20T10:34:59;53389.34;;;-148.32;nan
24390;BME280;12510;56.468;-3.004;2023-12-20T10:37:26;53357.50;;;-148.32;nan
24390;BME280;12510;56.468;-3.004;2023-12-20T10:39:52;53343.56;;;-148.32;nan
24390;BME280;12510;56.468;-3.004;2023-12-20T10:42:22;53347.53;;;-148.32;nan
24390;BME280;12510;56.468;-3.004;2023-12-20T10:44:49;53375.41;;;-148.32;nan
24390;BME280;12510;56.468;-3.004;2023-12-20T10:47:15;53305.72;;;-148.32;nan
24390;BME280;12510;56.468;-3.004;2023-12-20T10:49:42;53375.41;;;-148.32;nan
24390;BME280;12510;56.468;-3.004;2023-12-20T10:52:10;53393.34;;;-148.32;nan
24390;BME280;12510;56.468;-3.004;2023-12-20T10:54:37;53353.50;;;-148.32;nan
24390;BME280;12510;56.468;-3.004;2023-12-20T10:57:05;53373.44;;;-148.32;nan
24390;BME280;12510;56.468;-3.004;2023-12-20T10:59:36;53301.75;;;-148.32;nan
24390;BME280;12510;56.468;-3.004;2023-12-20T11:02:03;53365.47;;;-148.32;nan
24390;BME280;12510;56.468;-3.004;2023-12-20T11:07:36;53337.59;;;-148.32;nan
24390;BME280;12510;56.468;-3.004;2023-12-20T11:10:11;53399.31;;;-148.32;nan
24390;BME280;12510;56.468;-3.004;2023-12-20T11:12:48;53437.16;;;-148.32;nan
24390;BME280;12510;56.468;-3.004;2023-12-20T11:15:18;53413.25;;;-148.32;nan
24390;BME280;12510;56.468;-3.004;2023-12-20T11:17:44;53441.13;;;-148.32;nan
24390;BME280;12510;56.468;-3.004;2023-12-20T11:20:11;53349.53;;;-148.32;nan
24390;BME280;12510;56.468;-3.004;2023-12-20T11:22:39;53439.16;;;-148.32;nan
24390;BME280;12510;56.468;-3.004;2023-12-20T11:25:08;53435.16;;;-148.32;nan
24390;BME280;12510;56.468;-3.004;2023-12-20T11:27:35;53371.44;;;-148.32;nan
24390;BME280;12510;56.468;-3.004;2023-12-20T11:30:03;53405.28;;;-148.32;nan
24390;BME280;12510;56.468;-3.004;2023-12-20T11:32:29;53401.31;;;-148.32;nan
24390;BME280;12510;56.468;-3.004;2023-12-20T11:34:59;53383.38;;;-148.32;nan
24390;BME280;12510;56.468;-3.004;2023-12-20T11:37:29;53393.34;;;-148.32;nan
24390;BME280;12510;56.468;-3.004;2023-12-20T11:40:01;53405.28;;;-148.32;nan
24390;BME280;12510;56.468;-3.004;2023-12-20T11:42:28;53379.41;;;-148.32;nan
24390;BME280;12510;56.468;-3.004;2023-12-20T11:44:59;53435.16;;;-148.32;nan
24390;BME280;12510;56.468;-3.004;2023-12-20T11:47:25;53415.25;;;-148.32;nan
24390;BME280;12510;56.468;-3.004;2023-12-20T11:49:51;53431.19;;;-148.32;nan
24390;BME280;12510;56.468;-3.004;2023-12-20T11:52:17;53425.22;;;-148.32;nan
24390;BME280;12510;56.468;-3.004;2023-12-20T11:54:43;53431.19;;;-148.32;nan
24390;BME280;12510;56.468;-3.004;2023-12-20T11:57:10;53403.28;;;-148.32;nan
24390;BME280;12510;56.468;-3.004;2023-12-20T11:59:36;53447.09;;;-148.32;nan
24390;BME280;12510;56.468;-3.004;2023-12-20T12:02:02;53401.31;;;-148.32;nan
24390;BME280;12510;56.468;-3.004;2023-12-20T12:04:29;53413.25;;;-148.32;nan
24390;BME280;12510;56.468;-3.004;2023-12-20T12:06:55;53443.13;;;-148.32;nan
24390;BME280;12510;56.468;-3.004;2023-12-20T12:09:21;53401.31;;;-148.32;nan
24390;BME280;12510;56.468;-3.004;2023-12-20T12:11:47;53512.81;;;-148.32;nan
24390;BME280;12510;56.468;-3.004;2023-12-20T12:14:13;53576.56;;;-148.32;nan
24390;BME280;12510;56.468;-3.004;2023-12-20T12:16:41;53546.69;;;-148.32;nan
24390;BME280;12510;56.468;-3.004;2023-12-20T12:19:19;53504.88;;;-148.32;nan
24390;BME280;12510;56.468;-3.004;2023-12-20T12:21:45;53556.63;;;-148.32;nan
24390;BME280;12510;56.468;-3.004;2023-12-20T12:24:12;53604.44;;;-148.32;nan
24390;BME280;12510;56.468;-3.004;2023-12-20T12:26:38;53632.31;;;-148.32;nan
24390;BME280;12510;56.468;-3.004;2023-12-20T12:29:07;53522.78;;;-148.32;nan
24390;BME280;12510;56.468;-3.004;2023-12-20T12:31:33;53445.13;;;-148.32;nan
24390;BME280;12510;56.468;-3.004;2023-12-20T12:33:59;53431.19;;;-148.32;nan
24390;BME280;12510;56.468;-3.004;2023-12-20T12:36:25;53461.06;;;-148.32;nan
24390;BME280;12510;56.468;-3.004;2023-12-20T12:38:51;53425.22;;;-148.32;nan
24390;BME280;12510;56.468;-3.004;2023-12-20T12:41:18;53417.25;;;-148.32;nan
24390;BME280;12510;56.468;-3.004;2023-12-20T12:43:44;53413.25;;;-148.32;nan
24390;BME280;12510;56.468;-3.004;2023-12-20T12:46:10;53369.44;;;-148.32;nan
24390;BME280;12510;56.468;-3.004;2023-12-20T12:48:36;53357.50;;;-148.32;nan
24390;BME280;12510;56.468;-3.004;2023-12-20T12:51:02;53393.34;;;-148.32;nan
24390;BME280;12510;56.468;-3.004;2023-12-20T12:53:28;53397.31;;;-148.32;nan